sensor_id;sensor_type;location;lat;lon;timestamp;P1;durP1;ratioP1;P2;durP2;ratioP2
16689;SDS011;8458;52.220;9.884;2022-07-23T00:00:06;6.03;;;5.53;;
16689;SDS011;8458;52.220;9.884;2022-07-23T00:02:34;6.03;;;5.63;;
16689;SDS011;8458;52.220;9.884;2022-07-23T00:05:00;5.87;;;5.47;;
16689;SDS011;8458;52.220;9.884;2022-07-23T00:07:27;5.67;;;5.30;;
16689;SDS011;8458;52.220;9.884;2022-07-23T00:09:53;5.30;;;4.90;;
16689;SDS011;8458;52.220;9.884;2022-07-23T00:12:20;5.23;;;4.93;;
16689;SDS011;8458;52.220;9.884;2022-07-23T00:14:46;5.67;;;5.30;;
16689;SDS011;8458;52.220;9.884;2022-07-23T00:17:14;5.50;;;5.10;;
16689;SDS011;8458;52.220;9.884;2022-07-23T00:19:41;5.20;;;4.90;;
16689;SDS011;8458;52.220;9.884;2022-07-23T00:22:07;5.87;;;5.47;;
16689;SDS011;8458;52.220;9.884;2022-07-23T00:24:34;5.23;;;4.93;;
16689;SDS011;8458;52.220;9.884;2022-07-23T00:27:00;5.57;;;5.30;;
16689;SDS011;8458;52.220;9.884;2022-07-23T00:29:27;5.50;;;5.10;;
16689;SDS011;8458;52.220;9.884;2022-07-23T00:31:53;6.13;;;5.63;;
16689;SDS011;8458;52.220;9.884;2022-07-23T00:34:21;5.33;;;4.93;;
16689;SDS011;8458;52.220;9.884;2022-07-23T00:36:48;6.17;;;5.77;;
16689;SDS011;8458;52.220;9.884;2022-07-23T00:39:14;5.77;;;5.37;;
16689;SDS011;8458;52.220;9.884;2022-07-23T00:41:41;5.17;;;4.87;;
16689;SDS011;8458;52.220;9.884;2022-07-23T00:44:14;5.70;;;5.30;;
16689;SDS011;8458;52.220;9.884;2022-07-23T00:46:45;5.70;;;5.30;;
16689;SDS011;8458;52.220;9.884;2022-07-23T00:49:12;5.70;;;5.30;;
16689;SDS011;8458;52.220;9.884;2022-07-23T00:51:40;5.80;;;5.50;;
16689;SDS011;8458;52.220;9.884;2022-07-23T00:54:07;5.60;;;5.20;;
16689;SDS011;8458;52.220;9.884;2022-07-23T00:56:34;5.73;;;5.30;;
16689;SDS011;8458;52.220;9.884;2022-07-23T00:59:01;5.93;;;5.53;;
16689;SDS011;8458;52.220;9.884;2022-07-23T01:01:28;5.97;;;5.47;;
16689;SDS011;8458;52.220;9.884;2022-07-23T01:03:54;5.70;;;5.40;;
16689;SDS011;8458;52.220;9.884;2022-07-23T01:06:21;6.57;;;6.00;;
16689;SDS011;8458;52.220;9.884;2022-07-23T01:08:49;6.60;;;6.20;;
16689;SDS011;8458;52.220;9.884;2022-07-23T01:11:16;6.07;;;5.67;;
16689;SDS011;8458;52.220;9.884;2022-07-23T01:13:44;5.67;;;5.27;;
16689;SDS011;8458;52.220;9.884;2022-07-23T01:16:10;5.87;;;5.47;;
16689;SDS011;8458;52.220;9.884;2022-07-23T01:18:37;5.70;;;5.30;;
16689;SDS011;8458;52.220;9.884;2022-07-23T01:21:03;6.17;;;5.77;;
16689;SDS011;8458;52.220;9.884;2022-07-23T01:23:32;5.57;;;5.20;;
16689;SDS011;8458;52.220;9.884;2022-07-23T01:25:58;5.30;;;5.00;;
16689;SDS011;8458;52.220;9.884;2022-07-23T01:28:25;5.90;;;5.53;;
16689;SDS011;8458;52.220;9.884;2022-07-23T01:30:51;5.67;;;5.33;;
16689;SDS011;8458;52.220;9.884;2022-07-23T01:33:18;5.67;;;5.17;;
16689;SDS011;8458;52.220;9.884;2022-07-23T01:35:45;5.27;;;4.87;;
16689;SDS011;8458;52.220;9.884;2022-07-23T01:38:11;5.40;;;5.00;;
16689;SDS011;8458;52.220;9.884;2022-07-23T01:40:39;5.30;;;5.00;;
16689;SDS011;8458;52.220;9.884;2022-07-23T01:43:05;5.70;;;5.30;;
16689;SDS011;8458;52.220;9.884;2022-07-23T01:45:32;5.47;;;5.07;;
16689;SDS011;8458;52.220;9.884;2022-07-23T01:47:58;5.73;;;5.30;;
16689;SDS011;8458;52.220;9.884;2022-07-23T01:50:25;6.17;;;5.83;;
16689;SDS011;8458;52.220;9.884;2022-07-23T01:52:51;5.87;;;5.47;;
16689;SDS011;8458;52.220;9.884;2022-07-23T01:55:18;5.53;;;5.03;;
16689;SDS011;8458;52.220;9.884;2022-07-23T01:57:47;5.83;;;5.40;;
16689;SDS011;8458;52.220;9.884;2022-07-23T02:00:13;5.67;;;5.27;;
16689;SDS011;8458;52.220;9.884;2022-07-23T02:02:40;5.93;;;5.53;;
16689;SDS011;8458;52.220;9.884;2022-07-23T02:05:07;6.23;;;5.73;;
16689;SDS011;8458;52.220;9.884;2022-07-23T02:07:34;5.93;;;5.53;;
16689;SDS011;8458;52.220;9.884;2022-07-23T02:10:00;6.20;;;5.80;;
16689;SDS011;8458;52.220;9.884;2022-07-23T02:12:27;6.50;;;6.10;;
16689;SDS011;8458;52.220;9.884;2022-07-23T02:14:55;6.87;;;6.47;;
16689;SDS011;8458;52.220;9.884;2022-07-23T02:17:21;6.40;;;5.90;;
16689;SDS011;8458;52.220;9.884;2022-07-23T02:19:48;5.90;;;5.60;;
16689;SDS011;8458;52.220;9.884;2022-07-23T02:22:14;6.63;;;6.00;;
16689;SDS011;8458;52.220;9.884;2022-07-23T02:24:41;6.73;;;6.33;;
16689;SDS011;8458;52.220;9.884;2022-07-23T02:27:07;6.63;;;6.13;;
16689;SDS011;8458;52.220;9.884;2022-07-23T02:29:34;7.57;;;7.07;;
16689;SDS011;8458;52.220;9.884;2022-07-23T02:32:02;6.77;;;6.27;;
16689;SDS011;8458;52.220;9.884;2022-07-23T02:34:29;6.73;;;6.23;;
16689;SDS011;8458;52.220;9.884;2022-07-23T02:36:55;6.60;;;6.20;;
16689;SDS011;8458;52.220;9.884;2022-07-23T02:39:22;6.83;;;6.33;;
16689;SDS011;8458;52.220;9.884;2022-07-23T02:41:48;6.90;;;6.50;;
16689;SDS011;8458;52.220;9.884;2022-07-23T02:44:14;6.67;;;6.17;;
16689;SDS011;8458;52.220;9.884;2022-07-23T02:46:41;6.20;;;5.67;;
16689;SDS011;8458;52.220;9.884;2022-07-23T02:49:09;6.07;;;5.67;;
16689;SDS011;8458;52.220;9.884;2022-07-23T02:51:35;6.70;;;6.10;;
16689;SDS011;8458;52.220;9.884;2022-07-23T02:54:02;6.30;;;5.90;;
16689;SDS011;8458;52.220;9.884;2022-07-23T02:56:29;6.10;;;5.60;;
16689;SDS011;8458;52.220;9.884;2022-07-23T02:58:55;5.57;;;5.27;;
16689;SDS011;8458;52.220;9.884;2022-07-23T03:01:22;6.10;;;5.60;;
16689;SDS011;8458;52.220;9.884;2022-07-23T03:03:48;5.97;;;5.47;;
16689;SDS011;8458;52.220;9.884;2022-07-23T03:06:16;6.03;;;5.53;;
16689;SDS011;8458;52.220;9.884;2022-07-23T03:08:42;5.90;;;5.40;;
16689;SDS011;8458;52.220;9.884;2022-07-23T03:11:09;5.87;;;5.47;;
16689;SDS011;8458;52.220;9.884;2022-07-23T03:13:36;5.90;;;5.50;;
16689;SDS011;8458;52.220;9.884;2022-07-23T03:16:03;5.53;;;5.13;;
16689;SDS011;8458;52.220;9.884;2022-07-23T03:18:30;5.37;;;4.97;;
16689;SDS011;8458;52.220;9.884;2022-07-23T03:20:57;6.10;;;5.60;;
16689;SDS011;8458;52.220;9.884;2022-07-23T03:23:24;6.03;;;5.63;;
16689;SDS011;8458;52.220;9.884;2022-07-23T03:25:51;6.03;;;5.63;;
16689;SDS011;8458;52.220;9.884;2022-07-23T03:28:18;5.47;;;5.07;;
16689;SDS011;8458;52.220;9.884;2022-07-23T03:30:45;5.37;;;5.00;;
16689;SDS011;8458;52.220;9.884;2022-07-23T03:33:13;6.17;;;5.77;;
16689;SDS011;8458;52.220;9.884;2022-07-23T03:35:39;6.33;;;5.93;;
16689;SDS011;8458;52.220;9.884;2022-07-23T03:38:06;6.97;;;6.47;;
16689;SDS011;8458;52.220;9.884;2022-07-23T03:40:34;6.37;;;5.97;;
16689;SDS011;8458;52.220;9.884;2022-07-23T03:43:00;6.43;;;6.03;;
16689;SDS011;8458;52.220;9.884;2022-07-23T03:45:27;5.77;;;5.37;;
16689;SDS011;8458;52.220;9.884;2022-07-23T03:47:53;6.53;;;6.03;;
16689;SDS011;8458;52.220;9.884;2022-07-23T03:50:20;6.27;;;5.87;;
16689;SDS011;8458;52.220;9.884;2022-07-23T03:52:47;6.20;;;5.80;;
16689;SDS011;8458;52.220;9.884;2022-07-23T03:55:13;5.90;;;5.60;;
16689;SDS011;8458;52.220;9.884;2022-07-23T03:57:42;6.37;;;6.07;;
16689;SDS011;8458;52.220;9.884;2022-07-23T04:00:09;5.93;;;5.60;;
16689;SDS011;8458;52.220;9.884;2022-07-23T04:02:39;6.27;;;5.87;;
16689;SDS011;8458;52.220;9.884;2022-07-23T04:05:06;5.73;;;5.30;;
16689;SDS011;8458;52.220;9.884;2022-07-23T04:07:34;6.30;;;5.90;;
16689;SDS011;8458;52.220;9.884;2022-07-23T04:10:00;5.73;;;5.33;;
16689;SDS011;8458;52.220;9.884;2022-07-23T04:12:27;6.50;;;6.00;;
16689;SDS011;8458;52.220;9.884;2022-07-23T04:14:54;6.37;;;5.97;;
16689;SDS011;8458;52.220;9.884;2022-07-23T04:17:21;6.67;;;6.10;;
16689;SDS011;8458;52.220;9.884;2022-07-23T04:19:47;6.03;;;5.63;;
16689;SDS011;8458;52.220;9.884;2022-07-23T04:22:14;6.67;;;6.27;;
16689;SDS011;8458;52.220;9.884;2022-07-23T04:24:40;6.80;;;6.30;;
16689;SDS011;8458;52.220;9.884;2022-07-23T04:27:07;7.07;;;6.57;;
16689;SDS011;8458;52.220;9.884;2022-07-23T04:29:33;6.73;;;6.23;;
16689;SDS011;8458;52.220;9.884;2022-07-23T04:32:01;7.13;;;6.43;;
16689;SDS011;8458;52.220;9.884;2022-07-23T04:34:28;6.63;;;6.17;;
16689;SDS011;8458;52.220;9.884;2022-07-23T04:36:54;6.80;;;6.40;;
16689;SDS011;8458;52.220;9.884;2022-07-23T04:39:21;6.70;;;6.20;;
16689;SDS011;8458;52.220;9.884;2022-07-23T04:41:48;6.80;;;6.40;;
16689;SDS011;8458;52.220;9.884;2022-07-23T04:44:14;7.00;;;6.60;;
16689;SDS011;8458;52.220;9.884;2022-07-23T04:46:41;7.43;;;6.93;;
16689;SDS011;8458;52.220;9.884;2022-07-23T04:49:09;7.00;;;6.60;;
16689;SDS011;8458;52.220;9.884;2022-07-23T04:51:35;7.17;;;6.67;;
16689;SDS011;8458;52.220;9.884;2022-07-23T04:54:02;6.90;;;6.50;;
16689;SDS011;8458;52.220;9.884;2022-07-23T04:56:29;7.10;;;6.60;;
16689;SDS011;8458;52.220;9.884;2022-07-23T04:58:55;6.60;;;6.20;;
16689;SDS011;8458;52.220;9.884;2022-07-23T05:01:22;6.43;;;6.03;;
16689;SDS011;8458;52.220;9.884;2022-07-23T05:03:48;5.97;;;5.57;;
16689;SDS011;8458;52.220;9.884;2022-07-23T05:06:16;6.60;;;6.10;;
16689;SDS011;8458;52.220;9.884;2022-07-23T05:08:42;6.13;;;5.73;;
16689;SDS011;8458;52.220;9.884;2022-07-23T05:11:09;5.80;;;5.50;;
16689;SDS011;8458;52.220;9.884;2022-07-23T05:13:35;6.40;;;5.90;;
16689;SDS011;8458;52.220;9.884;2022-07-23T05:16:02;6.67;;;6.13;;
16689;SDS011;8458;52.220;9.884;2022-07-23T05:18:29;6.83;;;6.30;;
16689;SDS011;8458;52.220;9.884;2022-07-23T05:20:55;6.93;;;6.43;;
16689;SDS011;8458;52.220;9.884;2022-07-23T05:23:23;6.67;;;6.17;;
16689;SDS011;8458;52.220;9.884;2022-07-23T05:25:50;6.60;;;6.07;;
16689;SDS011;8458;52.220;9.884;2022-07-23T05:28:16;6.63;;;6.23;;
16689;SDS011;8458;52.220;9.884;2022-07-23T05:30:43;6.67;;;5.97;;
16689;SDS011;8458;52.220;9.884;2022-07-23T05:33:09;6.60;;;6.10;;
16689;SDS011;8458;52.220;9.884;2022-07-23T05:35:36;6.27;;;5.87;;
16689;SDS011;8458;52.220;9.884;2022-07-23T05:38:02;6.80;;;6.30;;
16689;SDS011;8458;52.220;9.884;2022-07-23T05:40:30;6.60;;;6.20;;
16689;SDS011;8458;52.220;9.884;2022-07-23T05:42:58;6.77;;;6.27;;
16689;SDS011;8458;52.220;9.884;2022-07-23T05:45:24;6.50;;;6.00;;
16689;SDS011;8458;52.220;9.884;2022-07-23T05:47:51;7.07;;;6.57;;
16689;SDS011;8458;52.220;9.884;2022-07-23T05:50:17;6.70;;;6.03;;
16689;SDS011;8458;52.220;9.884;2022-07-23T05:52:44;5.63;;;5.13;;
16689;SDS011;8458;52.220;9.884;2022-07-23T05:55:11;6.63;;;6.10;;
16689;SDS011;8458;52.220;9.884;2022-07-23T05:57:39;6.80;;;6.30;;
16689;SDS011;8458;52.220;9.884;2022-07-23T06:00:07;6.47;;;6.07;;
16689;SDS011;8458;52.220;9.884;2022-07-23T06:02:35;5.47;;;5.07;;
16689;SDS011;8458;52.220;9.884;2022-07-23T06:05:03;5.70;;;5.30;;
16689;SDS011;8458;52.220;9.884;2022-07-23T06:07:29;5.43;;;5.03;;
16689;SDS011;8458;52.220;9.884;2022-07-23T06:09:56;5.97;;;5.57;;
16689;SDS011;8458;52.220;9.884;2022-07-23T06:12:22;5.20;;;4.80;;
16689;SDS011;8458;52.220;9.884;2022-07-23T06:14:52;5.33;;;4.93;;
16689;SDS011;8458;52.220;9.884;2022-07-23T06:17:18;4.60;;;4.30;;
16689;SDS011;8458;52.220;9.884;2022-07-23T06:19:45;5.47;;;5.07;;
16689;SDS011;8458;52.220;9.884;2022-07-23T06:22:11;4.57;;;4.27;;
16689;SDS011;8458;52.220;9.884;2022-07-23T06:24:38;5.20;;;4.80;;
16689;SDS011;8458;52.220;9.884;2022-07-23T06:27:05;4.40;;;4.10;;
16689;SDS011;8458;52.220;9.884;2022-07-23T06:29:31;4.43;;;4.13;;
16689;SDS011;8458;52.220;9.884;2022-07-23T06:31:59;4.30;;;4.00;;
16689;SDS011;8458;52.220;9.884;2022-07-23T06:34:26;4.33;;;3.97;;
16689;SDS011;8458;52.220;9.884;2022-07-23T06:36:52;5.33;;;4.77;;
16689;SDS011;8458;52.220;9.884;2022-07-23T06:39:19;4.40;;;4.00;;
16689;SDS011;8458;52.220;9.884;2022-07-23T06:41:45;4.87;;;4.10;;
16689;SDS011;8458;52.220;9.884;2022-07-23T06:44:12;4.00;;;3.70;;
16689;SDS011;8458;52.220;9.884;2022-07-23T06:46:38;4.63;;;4.23;;
16689;SDS011;8458;52.220;9.884;2022-07-23T06:49:06;4.07;;;3.77;;
16689;SDS011;8458;52.220;9.884;2022-07-23T06:51:33;4.23;;;3.97;;
16689;SDS011;8458;52.220;9.884;2022-07-23T06:54:00;3.50;;;3.23;;
16689;SDS011;8458;52.220;9.884;2022-07-23T06:56:26;3.63;;;3.33;;
16689;SDS011;8458;52.220;9.884;2022-07-23T06:58:52;4.10;;;3.80;;
16689;SDS011;8458;52.220;9.884;2022-07-23T07:01:19;3.90;;;3.63;;
16689;SDS011;8458;52.220;9.884;2022-07-23T07:03:46;3.83;;;3.53;;
16689;SDS011;8458;52.220;9.884;2022-07-23T07:06:14;3.63;;;3.33;;
16689;SDS011;8458;52.220;9.884;2022-07-23T07:08:41;3.00;;;2.80;;
16689;SDS011;8458;52.220;9.884;2022-07-23T07:11:08;3.13;;;2.73;;
16689;SDS011;8458;52.220;9.884;2022-07-23T07:13:34;3.17;;;2.80;;
16689;SDS011;8458;52.220;9.884;2022-07-23T07:16:01;3.40;;;3.10;;
16689;SDS011;8458;52.220;9.884;2022-07-23T07:18:28;3.60;;;3.30;;
16689;SDS011;8458;52.220;9.884;2022-07-23T07:20:55;3.83;;;3.47;;
16689;SDS011;8458;52.220;9.884;2022-07-23T07:23:23;3.40;;;3.10;;
16689;SDS011;8458;52.220;9.884;2022-07-23T07:25:50;3.60;;;3.30;;
16689;SDS011;8458;52.220;9.884;2022-07-23T07:28:16;3.57;;;3.27;;
16689;SDS011;8458;52.220;9.884;2022-07-23T07:30:43;2.67;;;2.43;;
16689;SDS011;8458;52.220;9.884;2022-07-23T07:33:09;2.60;;;2.40;;
16689;SDS011;8458;52.220;9.884;2022-07-23T07:35:36;2.40;;;2.20;;
16689;SDS011;8458;52.220;9.884;2022-07-23T07:38:03;3.20;;;2.90;;
16689;SDS011;8458;52.220;9.884;2022-07-23T07:40:30;2.90;;;2.70;;
16689;SDS011;8458;52.220;9.884;2022-07-23T07:42:57;2.57;;;2.37;;
16689;SDS011;8458;52.220;9.884;2022-07-23T07:45:24;2.27;;;2.00;;
16689;SDS011;8458;52.220;9.884;2022-07-23T07:47:52;2.40;;;2.10;;
16689;SDS011;8458;52.220;9.884;2022-07-23T07:50:19;2.00;;;1.90;;
16689;SDS011;8458;52.220;9.884;2022-07-23T07:52:46;2.67;;;2.07;;
16689;SDS011;8458;52.220;9.884;2022-07-23T07:55:12;1.90;;;1.67;;
16689;SDS011;8458;52.220;9.884;2022-07-23T07:57:41;2.00;;;1.90;;
16689;SDS011;8458;52.220;9.884;2022-07-23T08:00:08;2.73;;;2.50;;
16689;SDS011;8458;52.220;9.884;2022-07-23T08:02:43;2.30;;;1.70;;
16689;SDS011;8458;52.220;9.884;2022-07-23T08:05:10;2.10;;;1.90;;
16689;SDS011;8458;52.220;9.884;2022-07-23T08:07:37;1.80;;;1.70;;
16689;SDS011;8458;52.220;9.884;2022-07-23T08:10:05;1.90;;;1.53;;
16689;SDS011;8458;52.220;9.884;2022-07-23T08:12:44;2.83;;;2.00;;
16689;SDS011;8458;52.220;9.884;2022-07-23T08:15:12;2.37;;;2.07;;
16689;SDS011;8458;52.220;9.884;2022-07-23T08:17:40;1.80;;;1.63;;
16689;SDS011;8458;52.220;9.884;2022-07-23T08:20:07;2.93;;;2.10;;
16689;SDS011;8458;52.220;9.884;2022-07-23T08:22:45;2.70;;;2.50;;
16689;SDS011;8458;52.220;9.884;2022-07-23T08:25:13;2.77;;;2.57;;
16689;SDS011;8458;52.220;9.884;2022-07-23T08:27:40;2.90;;;1.70;;
16689;SDS011;8458;52.220;9.884;2022-07-23T08:30:08;2.37;;;1.50;;
16689;SDS011;8458;52.220;9.884;2022-07-23T08:32:48;2.40;;;2.07;;
16689;SDS011;8458;52.220;9.884;2022-07-23T08:35:23;1.87;;;1.73;;
16689;SDS011;8458;52.220;9.884;2022-07-23T08:37:51;1.60;;;1.50;;
16689;SDS011;8458;52.220;9.884;2022-07-23T08:40:18;2.93;;;1.53;;
16689;SDS011;8458;52.220;9.884;2022-07-23T08:42:46;1.53;;;1.43;;
16689;SDS011;8458;52.220;9.884;2022-07-23T08:45:17;1.83;;;1.23;;
16689;SDS011;8458;52.220;9.884;2022-07-23T08:47:45;2.27;;;1.50;;
16689;SDS011;8458;52.220;9.884;2022-07-23T08:50:15;1.90;;;1.20;;
16689;SDS011;8458;52.220;9.884;2022-07-23T08:52:42;1.03;;;0.93;;
16689;SDS011;8458;52.220;9.884;2022-07-23T08:55:08;2.47;;;1.33;;
16689;SDS011;8458;52.220;9.884;2022-07-23T08:57:35;1.60;;;1.40;;
16689;SDS011;8458;52.220;9.884;2022-07-23T09:00:02;1.70;;;1.53;;
16689;SDS011;8458;52.220;9.884;2022-07-23T09:02:31;1.47;;;1.17;;
16689;SDS011;8458;52.220;9.884;2022-07-23T09:05:05;2.17;;;1.20;;
16689;SDS011;8458;52.220;9.884;2022-07-23T09:07:32;1.03;;;0.87;;
16689;SDS011;8458;52.220;9.884;2022-07-23T09:10:04;1.47;;;0.90;;
16689;SDS011;8458;52.220;9.884;2022-07-23T09:12:32;1.50;;;0.90;;
16689;SDS011;8458;52.220;9.884;2022-07-23T09:15:03;1.50;;;1.20;;
16689;SDS011;8458;52.220;9.884;2022-07-23T09:17:37;1.10;;;0.87;;
16689;SDS011;8458;52.220;9.884;2022-07-23T09:20:09;1.57;;;1.10;;
16689;SDS011;8458;52.220;9.884;2022-07-23T09:22:37;1.87;;;1.13;;
16689;SDS011;8458;52.220;9.884;2022-07-23T09:25:05;1.23;;;0.77;;
16689;SDS011;8458;52.220;9.884;2022-07-23T09:27:46;1.53;;;1.17;;
16689;SDS011;8458;52.220;9.884;2022-07-23T09:30:15;1.10;;;1.00;;
16689;SDS011;8458;52.220;9.884;2022-07-23T09:32:43;1.13;;;1.03;;
16689;SDS011;8458;52.220;9.884;2022-07-23T09:35:09;1.00;;;1.00;;
16689;SDS011;8458;52.220;9.884;2022-07-23T09:37:36;1.10;;;1.00;;
16689;SDS011;8458;52.220;9.884;2022-07-23T09:40:04;1.27;;;1.17;;
16689;SDS011;8458;52.220;9.884;2022-07-23T09:42:32;1.20;;;1.00;;
16689;SDS011;8458;52.220;9.884;2022-07-23T09:44:59;1.30;;;1.20;;
16689;SDS011;8458;52.220;9.884;2022-07-23T09:47:27;1.23;;;1.03;;
16689;SDS011;8458;52.220;9.884;2022-07-23T09:50:00;1.13;;;0.93;;
16689;SDS011;8458;52.220;9.884;2022-07-23T09:52:29;1.00;;;0.80;;
16689;SDS011;8458;52.220;9.884;2022-07-23T09:54:58;1.20;;;1.03;;
16689;SDS011;8458;52.220;9.884;2022-07-23T09:57:25;1.50;;;0.90;;
16689;SDS011;8458;52.220;9.884;2022-07-23T09:59:52;1.30;;;1.10;;
16689;SDS011;8458;52.220;9.884;2022-07-23T10:02:19;1.80;;;1.30;;
16689;SDS011;8458;52.220;9.884;2022-07-23T10:04:46;1.00;;;0.90;;
16689;SDS011;8458;52.220;9.884;2022-07-23T10:07:16;1.30;;;1.20;;
16689;SDS011;8458;52.220;9.884;2022-07-23T10:09:47;1.50;;;1.10;;
16689;SDS011;8458;52.220;9.884;2022-07-23T10:12:16;1.93;;;1.07;;
16689;SDS011;8458;52.220;9.884;2022-07-23T10:14:47;1.57;;;1.30;;
16689;SDS011;8458;52.220;9.884;2022-07-23T10:17:14;1.83;;;1.00;;
16689;SDS011;8458;52.220;9.884;2022-07-23T10:19:41;0.93;;;0.83;;
16689;SDS011;8458;52.220;9.884;2022-07-23T10:22:09;1.00;;;0.80;;
16689;SDS011;8458;52.220;9.884;2022-07-23T10:27:41;1.20;;;1.10;;
16689;SDS011;8458;52.220;9.884;2022-07-23T10:30:16;1.77;;;1.00;;
16689;SDS011;8458;52.220;9.884;2022-07-23T10:33:03;1.93;;;1.00;;
16689;SDS011;8458;52.220;9.884;2022-07-23T10:35:43;1.27;;;1.03;;
16689;SDS011;8458;52.220;9.884;2022-07-23T10:38:18;1.27;;;0.97;;
16689;SDS011;8458;52.220;9.884;2022-07-23T10:40:57;1.20;;;1.10;;
16689;SDS011;8458;52.220;9.884;2022-07-23T10:43:24;0.80;;;0.77;;
16689;SDS011;8458;52.220;9.884;2022-07-23T10:45:51;2.63;;;1.03;;
16689;SDS011;8458;52.220;9.884;2022-07-23T10:48:19;1.90;;;1.00;;
16689;SDS011;8458;52.220;9.884;2022-07-23T10:53:53;1.20;;;1.10;;
16689;SDS011;8458;52.220;9.884;2022-07-23T11:02:38;1.63;;;0.90;;
16689;SDS011;8458;52.220;9.884;2022-07-23T11:05:06;1.30;;;1.03;;
16689;SDS011;8458;52.220;9.884;2022-07-23T11:07:35;1.17;;;0.93;;
16689;SDS011;8458;52.220;9.884;2022-07-23T11:10:02;1.07;;;0.80;;
16689;SDS011;8458;52.220;9.884;2022-07-23T11:12:33;0.93;;;0.60;;
16689;SDS011;8458;52.220;9.884;2022-07-23T11:15:01;0.80;;;0.60;;
16689;SDS011;8458;52.220;9.884;2022-07-23T11:17:32;1.20;;;0.97;;
16689;SDS011;8458;52.220;9.884;2022-07-23T11:20:12;0.87;;;0.87;;
16689;SDS011;8458;52.220;9.884;2022-07-23T11:22:47;0.80;;;0.80;;
16689;SDS011;8458;52.220;9.884;2022-07-23T11:25:28;2.70;;;0.90;;
16689;SDS011;8458;52.220;9.884;2022-07-23T11:28:07;1.30;;;0.83;;
16689;SDS011;8458;52.220;9.884;2022-07-23T11:30:40;1.20;;;0.80;;
16689;SDS011;8458;52.220;9.884;2022-07-23T11:33:20;0.93;;;0.80;;
16689;SDS011;8458;52.220;9.884;2022-07-23T11:35:49;1.23;;;0.80;;
16689;SDS011;8458;52.220;9.884;2022-07-23T11:38:27;0.90;;;0.70;;
16689;SDS011;8458;52.220;9.884;2022-07-23T11:40:56;1.87;;;0.80;;
16689;SDS011;8458;52.220;9.884;2022-07-23T11:43:23;2.27;;;0.70;;
16689;SDS011;8458;52.220;9.884;2022-07-23T11:45:51;1.43;;;0.60;;
16689;SDS011;8458;52.220;9.884;2022-07-23T11:48:20;1.30;;;0.60;;
16689;SDS011;8458;52.220;9.884;2022-07-23T11:50:49;0.73;;;0.70;;
16689;SDS011;8458;52.220;9.884;2022-07-23T11:53:21;1.83;;;0.60;;
16689;SDS011;8458;52.220;9.884;2022-07-23T11:55:48;1.07;;;0.60;;
16689;SDS011;8458;52.220;9.884;2022-07-23T11:58:15;0.93;;;0.60;;
16689;SDS011;8458;52.220;9.884;2022-07-23T12:00:41;0.77;;;0.60;;
16689;SDS011;8458;52.220;9.884;2022-07-23T12:03:08;0.87;;;0.60;;
16689;SDS011;8458;52.220;9.884;2022-07-23T12:05:37;1.90;;;0.80;;
16689;SDS011;8458;52.220;9.884;2022-07-23T12:08:04;1.67;;;0.63;;
16689;SDS011;8458;52.220;9.884;2022-07-23T12:10:33;0.90;;;0.53;;
16689;SDS011;8458;52.220;9.884;2022-07-23T12:13:03;1.27;;;0.50;;
16689;SDS011;8458;52.220;9.884;2022-07-23T12:15:32;0.87;;;0.60;;
16689;SDS011;8458;52.220;9.884;2022-07-23T12:18:03;0.93;;;0.60;;
16689;SDS011;8458;52.220;9.884;2022-07-23T12:20:31;1.27;;;0.60;;
16689;SDS011;8458;52.220;9.884;2022-07-23T12:23:01;0.87;;;0.40;;
16689;SDS011;8458;52.220;9.884;2022-07-23T12:25:30;0.70;;;0.70;;
16689;SDS011;8458;52.220;9.884;2022-07-23T12:27:59;1.30;;;0.50;;
16689;SDS011;8458;52.220;9.884;2022-07-23T12:30:32;0.67;;;0.60;;
16689;SDS011;8458;52.220;9.884;2022-07-23T12:33:02;1.90;;;0.60;;
16689;SDS011;8458;52.220;9.884;2022-07-23T12:35:30;1.40;;;0.57;;
16689;SDS011;8458;52.220;9.884;2022-07-23T12:38:03;0.97;;;0.50;;
16689;SDS011;8458;52.220;9.884;2022-07-23T12:40:32;1.23;;;0.50;;
16689;SDS011;8458;52.220;9.884;2022-07-23T12:43:03;0.80;;;0.60;;
16689;SDS011;8458;52.220;9.884;2022-07-23T12:45:41;0.50;;;0.50;;
16689;SDS011;8458;52.220;9.884;2022-07-23T12:48:15;0.73;;;0.57;;
16689;SDS011;8458;52.220;9.884;2022-07-23T12:50:44;0.53;;;0.50;;
16689;SDS011;8458;52.220;9.884;2022-07-23T12:53:18;0.50;;;0.50;;
16689;SDS011;8458;52.220;9.884;2022-07-23T12:55:46;1.50;;;0.60;;
16689;SDS011;8458;52.220;9.884;2022-07-23T12:58:14;0.83;;;0.50;;
16689;SDS011;8458;52.220;9.884;2022-07-23T13:00:49;0.50;;;0.50;;
16689;SDS011;8458;52.220;9.884;2022-07-23T13:03:21;0.67;;;0.50;;
16689;SDS011;8458;52.220;9.884;2022-07-23T13:05:48;0.80;;;0.50;;
16689;SDS011;8458;52.220;9.884;2022-07-23T13:08:16;0.97;;;0.50;;
16689;SDS011;8458;52.220;9.884;2022-07-23T13:10:43;0.90;;;0.50;;
16689;SDS011;8458;52.220;9.884;2022-07-23T13:13:11;0.70;;;0.33;;
16689;SDS011;8458;52.220;9.884;2022-07-23T13:15:38;0.60;;;0.50;;
16689;SDS011;8458;52.220;9.884;2022-07-23T13:18:05;1.00;;;0.60;;
16689;SDS011;8458;52.220;9.884;2022-07-23T13:20:31;0.73;;;0.50;;
16689;SDS011;8458;52.220;9.884;2022-07-23T13:22:59;0.60;;;0.50;;
16689;SDS011;8458;52.220;9.884;2022-07-23T13:25:27;0.50;;;0.40;;
16689;SDS011;8458;52.220;9.884;2022-07-23T13:27:53;0.97;;;0.43;;
16689;SDS011;8458;52.220;9.884;2022-07-23T13:30:20;0.43;;;0.30;;
16689;SDS011;8458;52.220;9.884;2022-07-23T13:32:47;1.57;;;0.50;;
16689;SDS011;8458;52.220;9.884;2022-07-23T13:35:14;0.40;;;0.40;;
16689;SDS011;8458;52.220;9.884;2022-07-23T13:37:41;2.10;;;0.60;;
16689;SDS011;8458;52.220;9.884;2022-07-23T13:40:07;0.67;;;0.50;;
16689;SDS011;8458;52.220;9.884;2022-07-23T13:42:37;0.50;;;0.40;;
16689;SDS011;8458;52.220;9.884;2022-07-23T13:45:04;0.87;;;0.50;;
16689;SDS011;8458;52.220;9.884;2022-07-23T13:47:32;1.27;;;0.70;;
16689;SDS011;8458;52.220;9.884;2022-07-23T13:49:58;0.40;;;0.40;;
16689;SDS011;8458;52.220;9.884;2022-07-23T13:52:25;1.07;;;0.50;;
16689;SDS011;8458;52.220;9.884;2022-07-23T13:54:52;0.50;;;0.40;;
16689;SDS011;8458;52.220;9.884;2022-07-23T13:57:19;0.33;;;0.33;;
16689;SDS011;8458;52.220;9.884;2022-07-23T13:59:46;1.87;;;0.60;;
16689;SDS011;8458;52.220;9.884;2022-07-23T14:02:13;10.07;;;4.17;;
16689;SDS011;8458;52.220;9.884;2022-07-23T14:04:42;1.37;;;0.90;;
16689;SDS011;8458;52.220;9.884;2022-07-23T14:07:09;1.30;;;1.10;;
16689;SDS011;8458;52.220;9.884;2022-07-23T14:09:36;1.33;;;0.70;;
16689;SDS011;8458;52.220;9.884;2022-07-23T14:12:03;1.20;;;0.30;;
16689;SDS011;8458;52.220;9.884;2022-07-23T14:14:30;0.57;;;0.50;;
16689;SDS011;8458;52.220;9.884;2022-07-23T14:16:58;0.87;;;0.40;;
16689;SDS011;8458;52.220;9.884;2022-07-23T14:19:25;0.60;;;0.40;;
16689;SDS011;8458;52.220;9.884;2022-07-23T14:21:51;1.47;;;0.40;;
16689;SDS011;8458;52.220;9.884;2022-07-23T14:24:18;0.43;;;0.30;;
16689;SDS011;8458;52.220;9.884;2022-07-23T14:26:44;0.63;;;0.40;;
16689;SDS011;8458;52.220;9.884;2022-07-23T14:29:11;0.75;;;0.30;;
16689;SDS011;8458;52.220;9.884;2022-07-23T14:31:38;0.73;;;0.40;;
16689;SDS011;8458;52.220;9.884;2022-07-23T14:34:06;0.50;;;0.30;;
16689;SDS011;8458;52.220;9.884;2022-07-23T14:36:32;0.50;;;0.30;;
16689;SDS011;8458;52.220;9.884;2022-07-23T14:38:59;0.67;;;0.30;;
16689;SDS011;8458;52.220;9.884;2022-07-23T14:41:26;0.70;;;0.40;;
16689;SDS011;8458;52.220;9.884;2022-07-23T14:43:52;0.70;;;0.40;;
16689;SDS011;8458;52.220;9.884;2022-07-23T14:46:19;0.67;;;0.30;;
16689;SDS011;8458;52.220;9.884;2022-07-23T14:48:45;0.50;;;0.50;;
16689;SDS011;8458;52.220;9.884;2022-07-23T14:51:13;0.50;;;0.50;;
16689;SDS011;8458;52.220;9.884;2022-07-23T14:53:40;0.50;;;0.50;;
16689;SDS011;8458;52.220;9.884;2022-07-23T14:56:06;0.40;;;0.40;;
16689;SDS011;8458;52.220;9.884;2022-07-23T14:58:33;1.27;;;0.30;;
16689;SDS011;8458;52.220;9.884;2022-07-23T15:01:00;0.50;;;0.40;;
16689;SDS011;8458;52.220;9.884;2022-07-23T15:03:26;1.40;;;0.77;;
16689;SDS011;8458;52.220;9.884;2022-07-23T15:05:53;0.70;;;0.40;;
16689;SDS011;8458;52.220;9.884;2022-07-23T15:08:21;1.23;;;0.40;;
16689;SDS011;8458;52.220;9.884;2022-07-23T15:10:47;0.30;;;0.27;;
16689;SDS011;8458;52.220;9.884;2022-07-23T15:13:14;0.70;;;0.40;;
16689;SDS011;8458;52.220;9.884;2022-07-23T15:15:40;1.00;;;0.40;;